createdAt,value
2017-08-03T00:01:04.930Z,22.00
2017-08-03T00:03:32.982Z,22.00
2017-08-03T00:06:01.058Z,22.10
2017-08-03T00:08:29.130Z,22.10
2017-08-03T00:10:57.192Z,22.10
2017-08-03T00:13:25.257Z,22.10
2017-08-03T00:15:53.320Z,22.10
2017-08-03T00:18:21.403Z,22.10
2017-08-03T00:20:49.487Z,22.00
2017-08-03T00:23:17.542Z,22.00
2017-08-03T00:25:45.617Z,22.00
2017-08-03T00:28:13.682Z,21.90
2017-08-03T00:30:41.791Z,21.90
2017-08-03T00:33:09.854Z,21.90
2017-08-03T00:35:37.927Z,21.90
2017-08-03T00:38:06.002Z,21.80
2017-08-03T00:40:34.076Z,21.70
2017-08-03T00:43:02.152Z,21.60
2017-08-03T00:45:30.984Z,21.50
2017-08-03T00:47:59.051Z,21.50
2017-08-03T00:50:27.123Z,21.50
2017-08-03T00:52:55.191Z,21.40
2017-08-03T00:55:23.280Z,21.40
2017-08-03T00:57:51.334Z,21.30
2017-08-03T01:00:19.413Z,21.30
2017-08-03T01:02:47.481Z,21.30
2017-08-03T01:05:15.603Z,21.30
2017-08-03T01:07:43.658Z,21.40
2017-08-03T01:10:11.742Z,21.30
2017-08-03T01:12:39.814Z,21.30
2017-08-03T01:15:07.883Z,21.20
2017-08-03T01:17:35.971Z,21.20
2017-08-03T01:20:04.800Z,20.80
2017-08-03T01:22:32.879Z,20.70
2017-08-03T01:25:00.957Z,20.80
2017-08-03T01:27:29.011Z,20.70
2017-08-03T01:29:57.075Z,20.70
2017-08-03T01:32:25.151Z,20.70
2017-08-03T01:34:53.218Z,20.70
2017-08-03T01:37:21.302Z,20.60
2017-08-03T01:39:49.386Z,20.60
2017-08-03T01:42:17.472Z,20.50
2017-08-03T01:44:45.545Z,20.60
2017-08-03T01:47:13.623Z,20.70
2017-08-03T01:49:41.696Z,20.70
2017-08-03T01:52:09.766Z,20.70
2017-08-03T01:54:37.841Z,20.70
2017-08-03T01:57:05.911Z,20.80
2017-08-03T01:59:33.987Z,20.80
2017-08-03T02:02:02.076Z,20.90
2017-08-03T02:04:30.109Z,21.00
2017-08-03T02:06:58.220Z,21.00
2017-08-03T02:09:26.296Z,21.00
2017-08-03T02:11:54.351Z,21.00
2017-08-03T02:14:22.423Z,21.00
2017-08-03T02:16:50.533Z,21.00
2017-08-03T02:19:18.599Z,21.00
2017-08-03T02:21:47.427Z,21.10
2017-08-03T02:24:15.490Z,21.00
2017-08-03T02:26:43.575Z,21.10
2017-08-03T02:29:12.292Z,21.10
2017-08-03T02:31:40.375Z,21.20
2017-08-03T02:34:08.438Z,21.20
2017-08-03T02:36:36.506Z,21.30
2017-08-03T02:39:04.581Z,21.30
2017-08-03T02:41:32.659Z,21.30
2017-08-03T02:44:01.494Z,21.30
2017-08-03T02:46:29.567Z,21.30
2017-08-03T02:48:57.650Z,21.30
2017-08-03T02:51:25.718Z,21.20
2017-08-03T02:53:53.798Z,21.20
2017-08-03T02:56:21.870Z,21.20
2017-08-03T02:58:49.951Z,21.20
2017-08-03T03:01:18.010Z,21.20
2017-08-03T03:03:46.072Z,21.20
2017-08-03T03:06:14.153Z,21.30
2017-08-03T03:08:42.216Z,21.30
2017-08-03T03:11:10.291Z,21.20
2017-08-03T03:13:38.380Z,21.30
2017-08-03T03:16:06.450Z,21.30
2017-08-03T03:18:34.518Z,21.30
2017-08-03T03:21:02.590Z,21.30
2017-08-03T03:23:30.663Z,21.30
2017-08-03T03:25:59.256Z,21.20
2017-08-03T03:28:27.313Z,21.20
2017-08-03T03:30:55.391Z,21.20
2017-08-03T03:33:23.460Z,21.20
2017-08-03T03:35:51.551Z,21.30
2017-08-03T03:38:19.614Z,21.30
2017-08-03T03:40:47.688Z,21.30
2017-08-03T03:43:15.771Z,21.30
2017-08-03T03:45:43.826Z,21.30
2017-08-03T03:48:11.888Z,21.30
2017-08-03T03:50:39.961Z,21.30
2017-08-03T03:53:08.051Z,21.30
2017-08-03T03:55:36.130Z,21.20
2017-08-03T03:58:04.205Z,21.10
2017-08-03T04:00:32.295Z,21.00
2017-08-03T04:03:01.127Z,20.80
2017-08-03T04:05:29.186Z,20.70
2017-08-03T04:07:57.258Z,20.70
2017-08-03T04:10:25.334Z,20.70
2017-08-03T04:12:53.414Z,20.70
2017-08-03T04:15:21.533Z,20.70
2017-08-03T04:17:49.563Z,20.70
2017-08-03T04:20:17.641Z,20.70
2017-08-03T04:22:45.718Z,20.60
2017-08-03T04:25:13.789Z,20.50
2017-08-03T04:27:41.859Z,20.40
2017-08-03T04:30:09.945Z,20.40
2017-08-03T04:32:37.999Z,20.40
2017-08-03T04:35:06.091Z,20.50
2017-08-03T04:37:34.162Z,20.50
2017-08-03T04:40:02.249Z,20.50
2017-08-03T04:42:30.318Z,20.60
2017-08-03T04:44:58.378Z,20.70
2017-08-03T04:47:26.458Z,20.70
2017-08-03T04:49:55.310Z,20.80
2017-08-03T04:52:23.386Z,20.70
2017-08-03T04:54:51.461Z,20.80
2017-08-03T04:57:19.537Z,20.80
2017-08-03T04:59:47.614Z,20.90
2017-08-03T05:02:15.695Z,21.00
2017-08-03T05:04:43.781Z,21.00
2017-08-03T05:07:12.611Z,21.10
2017-08-03T05:09:40.674Z,21.00
2017-08-03T05:12:08.792Z,21.00
2017-08-03T05:14:36.859Z,21.00
2017-08-03T05:17:04.930Z,21.00
2017-08-03T05:19:33.003Z,21.00
2017-08-03T05:22:01.125Z,21.00
2017-08-03T05:24:29.931Z,21.10
2017-08-03T05:26:58.031Z,21.00
2017-08-03T05:29:26.110Z,21.10
2017-08-03T05:31:54.171Z,21.20
2017-08-03T05:34:22.246Z,21.20
2017-08-03T05:36:50.306Z,21.20
2017-08-03T05:39:18.387Z,21.20
2017-08-03T05:41:46.528Z,21.20
2017-08-03T05:44:14.588Z,21.20
2017-08-03T05:46:42.654Z,21.10
2017-08-03T05:49:10.720Z,21.10
2017-08-03T05:51:38.807Z,21.10
2017-08-03T05:54:06.878Z,21.00
2017-08-03T05:56:34.957Z,21.00
2017-08-03T05:59:03.805Z,20.90
2017-08-03T06:01:31.875Z,20.90
2017-08-03T06:03:59.954Z,20.90
2017-08-03T06:06:28.017Z,20.90
2017-08-03T06:08:56.062Z,20.80
2017-08-03T06:11:25.090Z,20.80
2017-08-03T06:13:53.155Z,20.70
2017-08-03T06:16:21.228Z,20.70
2017-08-03T06:18:49.291Z,20.70
2017-08-03T06:21:17.366Z,20.70
2017-08-03T06:23:45.446Z,20.70
2017-08-03T06:26:13.541Z,20.80
2017-08-03T06:28:41.611Z,20.80
2017-08-03T06:31:09.675Z,20.90
2017-08-03T06:33:37.747Z,21.00
2017-08-03T06:36:05.803Z,21.00
2017-08-03T06:38:33.890Z,21.00
2017-08-03T06:41:01.962Z,21.00
2017-08-03T06:43:30.032Z,21.00
2017-08-03T06:45:58.117Z,21.00
2017-08-03T06:48:26.182Z,21.00
2017-08-03T06:50:54.257Z,20.90
2017-08-03T06:53:23.103Z,20.90
2017-08-03T06:55:51.173Z,20.80
2017-08-03T06:58:19.306Z,20.90
2017-08-03T07:00:47.387Z,21.00
2017-08-03T07:03:15.443Z,21.10
2017-08-03T07:05:43.498Z,21.20
2017-08-03T07:08:11.582Z,21.30
2017-08-03T07:10:39.642Z,21.30
2017-08-03T07:13:07.728Z,21.40
2017-08-03T07:15:35.847Z,21.40
2017-08-03T07:18:04.774Z,21.70
2017-08-03T07:20:32.855Z,21.70
2017-08-03T07:23:00.924Z,21.90
2017-08-03T07:25:29.007Z,22.10
2017-08-03T07:27:57.077Z,22.40
2017-08-03T07:30:25.147Z,22.70
2017-08-03T07:32:53.219Z,22.90
2017-08-03T07:35:21.432Z,23.20
2017-08-03T07:37:50.254Z,23.70
2017-08-03T07:40:19.057Z,23.60
2017-08-03T07:42:47.145Z,23.70
2017-08-03T07:45:15.215Z,23.80
2017-08-03T07:47:43.310Z,23.90
2017-08-03T07:50:11.388Z,24.00
2017-08-03T07:52:40.244Z,23.90
2017-08-03T07:55:08.320Z,23.80
2017-08-03T07:57:36.384Z,23.80
2017-08-03T08:00:04.464Z,23.90
2017-08-03T08:02:32.547Z,24.00
2017-08-03T08:05:00.631Z,24.20
2017-08-03T08:07:29.454Z,24.80
2017-08-03T08:09:57.556Z,24.80
2017-08-03T08:12:26.240Z,25.00
2017-08-03T08:14:54.282Z,25.20
2017-08-03T08:17:22.350Z,25.50
2017-08-03T08:19:50.404Z,25.50
2017-08-03T08:22:19.242Z,25.10
2017-08-03T08:24:47.310Z,25.10
2017-08-03T08:27:15.386Z,25.00
2017-08-03T08:29:43.454Z,24.90
2017-08-03T08:32:11.522Z,24.60
2017-08-03T08:34:39.598Z,24.40
2017-08-03T08:37:07.669Z,24.30
2017-08-03T08:39:35.749Z,24.20
2017-08-03T08:42:03.798Z,24.00
2017-08-03T08:44:31.899Z,23.80
2017-08-03T08:46:59.966Z,23.90
2017-08-03T08:49:28.018Z,23.70
2017-08-03T08:51:56.099Z,23.40
2017-08-03T08:54:24.154Z,23.20
2017-08-03T08:56:52.236Z,23.20
2017-08-03T08:59:20.297Z,23.10
2017-08-03T09:01:48.374Z,23.20
2017-08-03T09:04:16.424Z,23.30
2017-08-03T09:06:44.506Z,23.70
2017-08-03T09:09:12.557Z,24.00
2017-08-03T09:11:40.607Z,24.10
2017-08-03T09:14:09.446Z,24.40
2017-08-03T09:16:37.494Z,24.40
2017-08-03T09:19:05.580Z,24.40
2017-08-03T09:21:33.648Z,24.30
2017-08-03T09:24:01.714Z,24.30
2017-08-03T09:26:29.782Z,24.50
2017-08-03T09:28:57.862Z,24.70
2017-08-03T09:31:25.941Z,24.90
2017-08-03T09:33:54.001Z,25.20
2017-08-03T09:36:22.082Z,25.50
2017-08-03T09:38:50.140Z,25.90
2017-08-03T09:41:18.304Z,26.00
2017-08-03T09:43:47.108Z,26.30
2017-08-03T09:46:15.206Z,26.20
2017-08-03T09:48:43.287Z,26.40
2017-08-03T09:51:11.356Z,26.10
2017-08-03T09:53:39.414Z,25.80
2017-08-03T09:56:07.553Z,25.70
2017-08-03T09:58:35.613Z,25.90
2017-08-03T10:01:03.686Z,25.70
2017-08-03T10:03:31.757Z,25.60
2017-08-03T10:05:59.817Z,25.40
2017-08-03T10:08:27.892Z,25.70
2017-08-03T10:10:55.945Z,25.60
2017-08-03T10:13:24.068Z,25.70
2017-08-03T10:15:52.112Z,26.40
2017-08-03T10:18:20.178Z,27.90
2017-08-03T10:20:48.253Z,29.80
2017-08-03T10:23:16.322Z,31.90
2017-08-03T10:25:44.399Z,32.20
2017-08-03T10:28:12.454Z,32.80
2017-08-03T10:30:40.534Z,34.20
2017-08-03T10:33:08.595Z,35.60
2017-08-03T10:35:36.647Z,36.20
2017-08-03T10:38:04.706Z,36.10
2017-08-03T10:40:33.554Z,36.30
2017-08-03T10:43:01.630Z,36.30
2017-08-03T10:45:29.700Z,34.80
2017-08-03T10:47:57.778Z,33.10
2017-08-03T10:50:25.888Z,31.80
2017-08-03T10:52:54.700Z,30.60
2017-08-03T10:55:22.791Z,30.50
2017-08-03T10:57:50.870Z,30.10
2017-08-03T11:00:18.984Z,29.90
2017-08-03T11:02:47.771Z,27.80
2017-08-03T11:05:15.821Z,27.80
2017-08-03T11:07:43.905Z,27.20
2017-08-03T11:10:11.950Z,26.40
2017-08-03T11:12:40.799Z,25.70
2017-08-03T11:15:08.854Z,25.60
2017-08-03T11:17:36.926Z,25.30
2017-08-03T11:20:05.003Z,25.10
2017-08-03T11:22:33.073Z,24.90
2017-08-03T11:25:01.141Z,24.80
2017-08-03T11:27:29.207Z,24.70
2017-08-03T11:29:57.307Z,24.70
2017-08-03T11:32:25.414Z,24.70
2017-08-03T11:34:53.476Z,25.00
2017-08-03T11:37:21.556Z,25.20
2017-08-03T11:39:50.374Z,24.80
2017-08-03T11:42:18.440Z,24.70
2017-08-03T11:44:46.513Z,24.50
2017-08-03T11:47:14.590Z,24.30
2017-08-03T11:49:42.662Z,24.40
2017-08-03T11:52:10.731Z,24.90
2017-08-03T11:54:38.817Z,25.10
2017-08-03T11:57:06.883Z,24.90
2017-08-03T11:59:34.995Z,24.90
2017-08-03T12:02:03.812Z,24.40
2017-08-03T12:04:31.874Z,24.40
2017-08-03T12:06:59.942Z,24.00
2017-08-03T12:09:27.992Z,23.90
2017-08-03T12:11:56.818Z,24.00
2017-08-03T12:14:24.878Z,23.90
2017-08-03T12:16:52.958Z,24.30
2017-08-03T12:19:21.027Z,24.50
2017-08-03T12:21:49.090Z,24.80
2017-08-03T12:24:17.144Z,24.70
2017-08-03T12:26:45.226Z,24.40
2017-08-03T12:29:13.278Z,24.30
2017-08-03T12:31:42.135Z,24.60
2017-08-03T12:34:10.221Z,24.60
2017-08-03T12:36:39.054Z,24.50
2017-08-03T12:39:07.120Z,24.40
2017-08-03T12:41:35.176Z,24.40
2017-08-03T12:44:04.003Z,24.50
2017-08-03T12:46:32.068Z,24.50
2017-08-03T12:49:00.137Z,24.40
2017-08-03T12:51:28.199Z,24.60
2017-08-03T12:53:56.278Z,24.60
2017-08-03T12:56:24.338Z,24.60
2017-08-03T12:58:52.438Z,24.80
2017-08-03T13:01:20.512Z,25.00
2017-08-03T13:03:48.587Z,25.10
2017-08-03T13:06:17.409Z,25.20
2017-08-03T13:08:45.489Z,25.20
2017-08-03T13:11:13.574Z,25.20
2017-08-03T13:13:41.670Z,25.50
2017-08-03T13:16:09.742Z,25.40
2017-08-03T13:18:37.813Z,25.50
2017-08-03T13:21:06.704Z,25.40
2017-08-03T13:23:34.803Z,25.30
2017-08-03T13:26:03.641Z,25.60
2017-08-03T13:28:31.708Z,25.50
2017-08-03T13:30:59.740Z,25.50
2017-08-03T13:33:28.572Z,25.70
